sensor_id;sensor_type;location;lat;lon;timestamp;P1;durP1;ratioP1;P2;durP2;ratioP2
39680;SDS011;26327;42.550;23.120;2024-01-30T00:00:02;14.60;;;7.65;;
39680;SDS011;26327;42.550;23.120;2024-01-30T00:02:28;14.38;;;7.03;;
39680;SDS011;26327;42.550;23.120;2024-01-30T00:04:54;16.23;;;7.60;;
39680;SDS011;26327;42.550;23.120;2024-01-30T00:07:19;23.13;;;11.38;;
39680;SDS011;26327;42.550;23.120;2024-01-30T00:09:46;20.30;;;10.35;;
39680;SDS011;26327;42.550;23.120;2024-01-30T00:12:12;15.82;;;9.20;;
39680;SDS011;26327;42.550;23.120;2024-01-30T00:14:38;14.20;;;7.53;;
39680;SDS011;26327;42.550;23.120;2024-01-30T00:17:03;11.60;;;7.00;;
39680;SDS011;26327;42.550;23.120;2024-01-30T00:19:29;10.93;;;6.20;;
39680;SDS011;26327;42.550;23.120;2024-01-30T00:21:54;10.93;;;6.40;;
39680;SDS011;26327;42.550;23.120;2024-01-30T00:24:20;13.32;;;7.00;;
39680;SDS011;26327;42.550;23.120;2024-01-30T00:26:45;13.30;;;7.20;;
39680;SDS011;26327;42.550;23.120;2024-01-30T00:29:10;11.93;;;7.15;;
39680;SDS011;26327;42.550;23.120;2024-01-30T00:31:36;13.95;;;7.10;;
39680;SDS011;26327;42.550;23.120;2024-01-30T00:34:01;10.35;;;5.85;;
39680;SDS011;26327;42.550;23.120;2024-01-30T00:36:26;8.32;;;5.25;;
39680;SDS011;26327;42.550;23.120;2024-01-30T00:38:55;12.63;;;6.50;;
39680;SDS011;26327;42.550;23.120;2024-01-30T00:41:20;11.02;;;6.32;;
39680;SDS011;26327;42.550;23.120;2024-01-30T00:43:45;15.43;;;8.18;;
39680;SDS011;26327;42.550;23.120;2024-01-30T00:46:11;8.60;;;5.03;;
39680;SDS011;26327;42.550;23.120;2024-01-30T00:48:36;9.77;;;5.80;;
39680;SDS011;26327;42.550;23.120;2024-01-30T00:51:02;7.95;;;4.45;;
39680;SDS011;26327;42.550;23.120;2024-01-30T00:53:27;11.63;;;5.45;;
39680;SDS011;26327;42.550;23.120;2024-01-30T00:55:53;10.10;;;4.93;;
39680;SDS011;26327;42.550;23.120;2024-01-30T00:58:18;8.40;;;4.32;;
39680;SDS011;26327;42.550;23.120;2024-01-30T01:00:44;7.72;;;4.32;;
39680;SDS011;26327;42.550;23.120;2024-01-30T01:03:09;9.07;;;5.07;;
39680;SDS011;26327;42.550;23.120;2024-01-30T01:05:35;9.30;;;5.28;;
39680;SDS011;26327;42.550;23.120;2024-01-30T01:08:00;8.27;;;4.57;;
39680;SDS011;26327;42.550;23.120;2024-01-30T01:10:26;13.15;;;7.05;;
39680;SDS011;26327;42.550;23.120;2024-01-30T01:12:52;8.50;;;5.18;;
39680;SDS011;26327;42.550;23.120;2024-01-30T01:15:17;8.60;;;4.40;;
39680;SDS011;26327;42.550;23.120;2024-01-30T01:17:43;11.63;;;5.60;;
39680;SDS011;26327;42.550;23.120;2024-01-30T01:20:08;12.85;;;6.40;;
39680;SDS011;26327;42.550;23.120;2024-01-30T01:22:35;11.98;;;6.93;;
39680;SDS011;26327;42.550;23.120;2024-01-30T01:25:03;13.00;;;6.00;;
39680;SDS011;26327;42.550;23.120;2024-01-30T01:27:28;8.15;;;5.05;;
39680;SDS011;26327;42.550;23.120;2024-01-30T01:29:54;8.82;;;4.63;;
39680;SDS011;26327;42.550;23.120;2024-01-30T01:32:19;9.95;;;4.47;;
39680;SDS011;26327;42.550;23.120;2024-01-30T01:34:45;7.53;;;4.90;;
39680;SDS011;26327;42.550;23.120;2024-01-30T01:37:10;8.85;;;4.93;;
39680;SDS011;26327;42.550;23.120;2024-01-30T01:39:36;8.23;;;4.53;;
39680;SDS011;26327;42.550;23.120;2024-01-30T01:42:01;7.60;;;4.25;;
39680;SDS011;26327;42.550;23.120;2024-01-30T01:44:27;8.63;;;4.40;;
39680;SDS011;26327;42.550;23.120;2024-01-30T01:46:52;9.77;;;4.95;;
39680;SDS011;26327;42.550;23.120;2024-01-30T01:49:19;6.95;;;3.70;;
39680;SDS011;26327;42.550;23.120;2024-01-30T01:51:45;9.00;;;4.40;;
39680;SDS011;26327;42.550;23.120;2024-01-30T01:54:13;9.05;;;4.38;;
39680;SDS011;26327;42.550;23.120;2024-01-30T01:56:39;10.38;;;4.80;;
39680;SDS011;26327;42.550;23.120;2024-01-30T01:59:06;10.13;;;4.25;;
39680;SDS011;26327;42.550;23.120;2024-01-30T02:01:33;9.80;;;4.80;;
39680;SDS011;26327;42.550;23.120;2024-01-30T02:04:00;8.32;;;4.32;;
39680;SDS011;26327;42.550;23.120;2024-01-30T02:06:26;10.77;;;5.32;;
39680;SDS011;26327;42.550;23.120;2024-01-30T02:08:52;10.13;;;5.30;;
39680;SDS011;26327;42.550;23.120;2024-01-30T02:11:18;7.03;;;3.90;;
39680;SDS011;26327;42.550;23.120;2024-01-30T02:13:44;8.90;;;4.50;;
39680;SDS011;26327;42.550;23.120;2024-01-30T02:16:10;8.27;;;4.00;;
39680;SDS011;26327;42.550;23.120;2024-01-30T02:18:35;6.88;;;4.03;;
39680;SDS011;26327;42.550;23.120;2024-01-30T02:21:04;8.57;;;4.32;;
39680;SDS011;26327;42.550;23.120;2024-01-30T02:23:30;7.93;;;4.38;;
39680;SDS011;26327;42.550;23.120;2024-01-30T02:25:55;7.82;;;4.32;;
39680;SDS011;26327;42.550;23.120;2024-01-30T02:28:21;8.57;;;4.10;;
39680;SDS011;26327;42.550;23.120;2024-01-30T02:30:46;7.07;;;3.75;;
39680;SDS011;26327;42.550;23.120;2024-01-30T02:33:12;6.55;;;3.45;;
39680;SDS011;26327;42.550;23.120;2024-01-30T02:35:38;8.25;;;4.07;;
39680;SDS011;26327;42.550;23.120;2024-01-30T02:38:04;7.90;;;4.30;;
39680;SDS011;26327;42.550;23.120;2024-01-30T02:40:29;8.40;;;3.92;;
39680;SDS011;26327;42.550;23.120;2024-01-30T02:42:55;7.65;;;3.70;;
39680;SDS011;26327;42.550;23.120;2024-01-30T02:45:21;6.43;;;3.58;;
39680;SDS011;26327;42.550;23.120;2024-01-30T02:47:46;7.00;;;3.45;;
39680;SDS011;26327;42.550;23.120;2024-01-30T02:50:12;7.85;;;4.55;;
39680;SDS011;26327;42.550;23.120;2024-01-30T02:52:38;6.93;;;3.67;;
39680;SDS011;26327;42.550;23.120;2024-01-30T02:55:03;7.60;;;3.97;;
39680;SDS011;26327;42.550;23.120;2024-01-30T02:57:29;6.20;;;3.63;;
39680;SDS011;26327;42.550;23.120;2024-01-30T02:59:55;7.25;;;4.07;;
39680;SDS011;26327;42.550;23.120;2024-01-30T03:02:20;11.05;;;5.45;;
39680;SDS011;26327;42.550;23.120;2024-01-30T03:04:45;9.02;;;4.40;;
39680;SDS011;26327;42.550;23.120;2024-01-30T03:07:11;7.03;;;4.18;;
39680;SDS011;26327;42.550;23.120;2024-01-30T03:09:37;10.25;;;4.47;;
39680;SDS011;26327;42.550;23.120;2024-01-30T03:12:03;7.68;;;4.05;;
39680;SDS011;26327;42.550;23.120;2024-01-30T03:14:32;9.70;;;3.85;;
39680;SDS011;26327;42.550;23.120;2024-01-30T03:16:58;13.70;;;6.78;;
39680;SDS011;26327;42.550;23.120;2024-01-30T03:19:23;14.57;;;6.85;;
39680;SDS011;26327;42.550;23.120;2024-01-30T03:21:49;10.30;;;5.22;;
39680;SDS011;26327;42.550;23.120;2024-01-30T03:24:14;13.48;;;6.15;;
39680;SDS011;26327;42.550;23.120;2024-01-30T03:26:40;11.35;;;5.40;;
39680;SDS011;26327;42.550;23.120;2024-01-30T03:29:05;9.13;;;5.30;;
39680;SDS011;26327;42.550;23.120;2024-01-30T03:31:31;10.57;;;4.50;;
39680;SDS011;26327;42.550;23.120;2024-01-30T03:33:56;12.32;;;5.60;;
39680;SDS011;26327;42.550;23.120;2024-01-30T03:36:22;7.35;;;3.80;;
39680;SDS011;26327;42.550;23.120;2024-01-30T03:38:47;8.60;;;4.78;;
39680;SDS011;26327;42.550;23.120;2024-01-30T03:41:13;26.40;;;12.32;;
39680;SDS011;26327;42.550;23.120;2024-01-30T03:43:38;12.95;;;4.38;;
39680;SDS011;26327;42.550;23.120;2024-01-30T03:46:03;8.23;;;3.97;;
39680;SDS011;26327;42.550;23.120;2024-01-30T03:48:29;6.05;;;3.97;;
39680;SDS011;26327;42.550;23.120;2024-01-30T03:50:54;7.95;;;4.10;;
39680;SDS011;26327;42.550;23.120;2024-01-30T03:53:20;7.63;;;3.85;;
39680;SDS011;26327;42.550;23.120;2024-01-30T03:55:45;7.50;;;3.60;;
39680;SDS011;26327;42.550;23.120;2024-01-30T03:58:11;11.38;;;5.15;;
39680;SDS011;26327;42.550;23.120;2024-01-30T04:00:36;8.40;;;4.40;;
39680;SDS011;26327;42.550;23.120;2024-01-30T04:03:02;9.38;;;4.57;;
39680;SDS011;26327;42.550;23.120;2024-01-30T04:05:27;15.30;;;6.80;;
39680;SDS011;26327;42.550;23.120;2024-01-30T04:07:53;12.70;;;6.68;;
39680;SDS011;26327;42.550;23.120;2024-01-30T04:10:18;15.00;;;7.07;;
39680;SDS011;26327;42.550;23.120;2024-01-30T04:12:44;12.23;;;5.85;;
39680;SDS011;26327;42.550;23.120;2024-01-30T04:15:09;19.40;;;9.13;;
39680;SDS011;26327;42.550;23.120;2024-01-30T04:17:35;21.95;;;11.02;;
39680;SDS011;26327;42.550;23.120;2024-01-30T04:20:00;21.60;;;9.80;;
39680;SDS011;26327;42.550;23.120;2024-01-30T04:22:26;29.38;;;13.90;;
39680;SDS011;26327;42.550;23.120;2024-01-30T04:24:51;27.10;;;13.27;;
39680;SDS011;26327;42.550;23.120;2024-01-30T04:27:16;26.42;;;10.82;;
39680;SDS011;26327;42.550;23.120;2024-01-30T04:29:42;18.70;;;9.13;;
39680;SDS011;26327;42.550;23.120;2024-01-30T04:32:08;20.90;;;8.50;;
39680;SDS011;26327;42.550;23.120;2024-01-30T04:34:35;11.48;;;5.40;;
39680;SDS011;26327;42.550;23.120;2024-01-30T04:37:01;15.23;;;6.95;;
39680;SDS011;26327;42.550;23.120;2024-01-30T04:39:27;15.90;;;7.55;;
39680;SDS011;26327;42.550;23.120;2024-01-30T04:41:52;21.92;;;10.57;;
39680;SDS011;26327;42.550;23.120;2024-01-30T04:44:17;43.40;;;18.25;;
39680;SDS011;26327;42.550;23.120;2024-01-30T04:46:43;74.38;;;28.83;;
39680;SDS011;26327;42.550;23.120;2024-01-30T04:49:08;32.80;;;12.45;;
39680;SDS011;26327;42.550;23.120;2024-01-30T04:51:33;32.53;;;16.45;;
39680;SDS011;26327;42.550;23.120;2024-01-30T04:53:59;38.65;;;17.23;;
39680;SDS011;26327;42.550;23.120;2024-01-30T04:56:24;31.77;;;12.63;;
39680;SDS011;26327;42.550;23.120;2024-01-30T04:58:50;17.23;;;8.82;;
39680;SDS011;26327;42.550;23.120;2024-01-30T05:01:15;18.95;;;11.23;;
39680;SDS011;26327;42.550;23.120;2024-01-30T05:03:41;18.77;;;10.10;;
39680;SDS011;26327;42.550;23.120;2024-01-30T05:06:06;34.15;;;15.90;;
39680;SDS011;26327;42.550;23.120;2024-01-30T05:08:32;29.35;;;14.10;;
39680;SDS011;26327;42.550;23.120;2024-01-30T05:11:00;28.67;;;13.10;;
39680;SDS011;26327;42.550;23.120;2024-01-30T05:13:25;33.45;;;14.70;;
39680;SDS011;26327;42.550;23.120;2024-01-30T05:15:51;38.40;;;15.00;;
39680;SDS011;26327;42.550;23.120;2024-01-30T05:18:16;17.67;;;8.30;;
39680;SDS011;26327;42.550;23.120;2024-01-30T05:20:41;15.48;;;7.18;;
39680;SDS011;26327;42.550;23.120;2024-01-30T05:23:07;21.35;;;8.68;;
39680;SDS011;26327;42.550;23.120;2024-01-30T05:25:33;42.22;;;15.68;;
39680;SDS011;26327;42.550;23.120;2024-01-30T05:27:58;39.40;;;16.75;;
39680;SDS011;26327;42.550;23.120;2024-01-30T05:30:23;30.92;;;12.38;;
39680;SDS011;26327;42.550;23.120;2024-01-30T05:32:49;52.30;;;23.05;;
39680;SDS011;26327;42.550;23.120;2024-01-30T05:35:14;42.65;;;21.20;;
39680;SDS011;26327;42.550;23.120;2024-01-30T05:37:40;28.17;;;12.95;;
39680;SDS011;26327;42.550;23.120;2024-01-30T05:40:05;22.70;;;9.95;;
39680;SDS011;26327;42.550;23.120;2024-01-30T05:42:33;14.88;;;7.40;;
39680;SDS011;26327;42.550;23.120;2024-01-30T05:44:58;12.30;;;5.38;;
39680;SDS011;26327;42.550;23.120;2024-01-30T05:47:23;15.20;;;7.45;;
39680;SDS011;26327;42.550;23.120;2024-01-30T05:49:49;24.98;;;10.30;;
39680;SDS011;26327;42.550;23.120;2024-01-30T05:52:14;29.75;;;13.45;;
39680;SDS011;26327;42.550;23.120;2024-01-30T05:54:40;23.05;;;11.05;;
39680;SDS011;26327;42.550;23.120;2024-01-30T05:57:05;25.75;;;13.02;;
39680;SDS011;26327;42.550;23.120;2024-01-30T05:59:31;24.25;;;11.13;;
39680;SDS011;26327;42.550;23.120;2024-01-30T06:01:57;12.27;;;7.05;;
39680;SDS011;26327;42.550;23.120;2024-01-30T06:04:22;14.32;;;7.40;;
39680;SDS011;26327;42.550;23.120;2024-01-30T06:06:48;22.85;;;7.32;;
39680;SDS011;26327;42.550;23.120;2024-01-30T06:09:13;16.35;;;6.00;;
39680;SDS011;26327;42.550;23.120;2024-01-30T06:11:39;18.92;;;6.47;;
39680;SDS011;26327;42.550;23.120;2024-01-30T06:14:04;20.38;;;8.02;;
39680;SDS011;26327;42.550;23.120;2024-01-30T06:16:30;19.27;;;8.18;;
39680;SDS011;26327;42.550;23.120;2024-01-30T06:18:55;42.20;;;18.10;;
39680;SDS011;26327;42.550;23.120;2024-01-30T06:21:21;62.22;;;23.63;;
39680;SDS011;26327;42.550;23.120;2024-01-30T06:23:46;36.40;;;16.63;;
39680;SDS011;26327;42.550;23.120;2024-01-30T06:26:12;33.45;;;13.63;;
39680;SDS011;26327;42.550;23.120;2024-01-30T06:28:37;25.25;;;11.27;;
39680;SDS011;26327;42.550;23.120;2024-01-30T06:31:02;27.70;;;11.93;;
39680;SDS011;26327;42.550;23.120;2024-01-30T06:33:28;21.90;;;8.75;;
39680;SDS011;26327;42.550;23.120;2024-01-30T06:35:53;16.45;;;7.07;;
39680;SDS011;26327;42.550;23.120;2024-01-30T06:38:19;24.45;;;10.25;;
39680;SDS011;26327;42.550;23.120;2024-01-30T06:40:44;28.80;;;13.85;;
39680;SDS011;26327;42.550;23.120;2024-01-30T06:43:10;35.08;;;14.45;;
39680;SDS011;26327;42.550;23.120;2024-01-30T06:45:36;20.70;;;10.45;;
39680;SDS011;26327;42.550;23.120;2024-01-30T06:48:02;22.58;;;9.70;;
39680;SDS011;26327;42.550;23.120;2024-01-30T06:50:28;77.00;;;38.08;;
39680;SDS011;26327;42.550;23.120;2024-01-30T06:52:53;47.97;;;22.05;;
39680;SDS011;26327;42.550;23.120;2024-01-30T06:55:18;33.78;;;14.55;;
39680;SDS011;26327;42.550;23.120;2024-01-30T06:57:44;14.52;;;8.15;;
39680;SDS011;26327;42.550;23.120;2024-01-30T07:00:09;45.13;;;18.40;;
39680;SDS011;26327;42.550;23.120;2024-01-30T07:02:35;50.75;;;20.73;;
39680;SDS011;26327;42.550;23.120;2024-01-30T07:05:01;32.47;;;13.68;;
39680;SDS011;26327;42.550;23.120;2024-01-30T07:07:27;36.45;;;13.32;;
39680;SDS011;26327;42.550;23.120;2024-01-30T07:09:53;26.63;;;10.85;;
39680;SDS011;26327;42.550;23.120;2024-01-30T07:12:21;36.15;;;16.52;;
39680;SDS011;26327;42.550;23.120;2024-01-30T07:14:47;36.00;;;16.75;;
39680;SDS011;26327;42.550;23.120;2024-01-30T07:17:13;19.55;;;9.52;;
39680;SDS011;26327;42.550;23.120;2024-01-30T07:23:09;10.95;;;6.20;;
39680;SDS011;26327;42.550;23.120;2024-01-30T07:25:36;10.30;;;6.35;;
39680;SDS011;26327;42.550;23.120;2024-01-30T07:28:01;8.38;;;4.28;;
39680;SDS011;26327;42.550;23.120;2024-01-30T07:30:27;8.05;;;4.78;;
39680;SDS011;26327;42.550;23.120;2024-01-30T07:32:52;13.40;;;7.15;;
39680;SDS011;26327;42.550;23.120;2024-01-30T07:35:17;14.55;;;6.88;;
39680;SDS011;26327;42.550;23.120;2024-01-30T07:37:43;12.93;;;5.45;;
39680;SDS011;26327;42.550;23.120;2024-01-30T07:40:08;12.13;;;5.22;;
39680;SDS011;26327;42.550;23.120;2024-01-30T07:42:34;11.80;;;6.80;;
39680;SDS011;26327;42.550;23.120;2024-01-30T07:45:00;13.88;;;6.95;;
39680;SDS011;26327;42.550;23.120;2024-01-30T07:47:26;10.82;;;5.10;;
39680;SDS011;26327;42.550;23.120;2024-01-30T07:49:51;9.90;;;4.80;;
39680;SDS011;26327;42.550;23.120;2024-01-30T07:52:17;11.85;;;5.68;;
39680;SDS011;26327;42.550;23.120;2024-01-30T07:54:49;21.73;;;10.15;;
39680;SDS011;26327;42.550;23.120;2024-01-30T07:57:15;13.13;;;5.95;;
39680;SDS011;26327;42.550;23.120;2024-01-30T07:59:44;16.02;;;5.70;;
39680;SDS011;26327;42.550;23.120;2024-01-30T08:02:10;21.20;;;8.10;;
39680;SDS011;26327;42.550;23.120;2024-01-30T08:04:37;13.88;;;5.90;;
39680;SDS011;26327;42.550;23.120;2024-01-30T08:07:02;13.63;;;6.32;;
39680;SDS011;26327;42.550;23.120;2024-01-30T08:09:28;20.58;;;10.80;;
39680;SDS011;26327;42.550;23.120;2024-01-30T08:11:53;11.05;;;5.63;;
39680;SDS011;26327;42.550;23.120;2024-01-30T08:14:18;18.15;;;6.28;;
39680;SDS011;26327;42.550;23.120;2024-01-30T08:16:44;11.43;;;5.85;;
39680;SDS011;26327;42.550;23.120;2024-01-30T08:19:09;24.73;;;9.05;;
39680;SDS011;26327;42.550;23.120;2024-01-30T08:21:35;11.85;;;4.55;;
39680;SDS011;26327;42.550;23.120;2024-01-30T08:24:04;15.00;;;4.93;;
39680;SDS011;26327;42.550;23.120;2024-01-30T08:26:31;70.40;;;26.70;;
39680;SDS011;26327;42.550;23.120;2024-01-30T08:28:56;6.80;;;3.60;;
39680;SDS011;26327;42.550;23.120;2024-01-30T08:31:22;10.68;;;4.63;;
39680;SDS011;26327;42.550;23.120;2024-01-30T08:33:48;6.20;;;3.45;;
39680;SDS011;26327;42.550;23.120;2024-01-30T08:36:13;9.90;;;4.68;;
39680;SDS011;26327;42.550;23.120;2024-01-30T08:38:39;4.30;;;2.55;;
39680;SDS011;26327;42.550;23.120;2024-01-30T08:41:04;8.13;;;3.50;;
39680;SDS011;26327;42.550;23.120;2024-01-30T08:43:30;4.68;;;2.70;;
39680;SDS011;26327;42.550;23.120;2024-01-30T08:45:58;5.30;;;2.80;;
39680;SDS011;26327;42.550;23.120;2024-01-30T08:48:27;5.95;;;2.75;;
39680;SDS011;26327;42.550;23.120;2024-01-30T08:50:52;8.10;;;3.67;;
39680;SDS011;26327;42.550;23.120;2024-01-30T08:53:18;5.00;;;2.90;;
39680;SDS011;26327;42.550;23.120;2024-01-30T08:55:44;5.18;;;2.80;;
39680;SDS011;26327;42.550;23.120;2024-01-30T08:58:09;6.97;;;2.65;;
39680;SDS011;26327;42.550;23.120;2024-01-30T09:00:35;9.05;;;3.15;;
39680;SDS011;26327;42.550;23.120;2024-01-30T09:03:00;5.47;;;2.50;;
39680;SDS011;26327;42.550;23.120;2024-01-30T09:05:26;8.85;;;2.92;;
39680;SDS011;26327;42.550;23.120;2024-01-30T09:07:51;4.60;;;2.20;;
39680;SDS011;26327;42.550;23.120;2024-01-30T09:10:16;6.22;;;2.65;;
39680;SDS011;26327;42.550;23.120;2024-01-30T09:12:42;4.72;;;2.50;;
39680;SDS011;26327;42.550;23.120;2024-01-30T09:15:07;5.82;;;2.92;;
39680;SDS011;26327;42.550;23.120;2024-01-30T09:17:33;6.15;;;3.75;;
39680;SDS011;26327;42.550;23.120;2024-01-30T09:19:59;5.72;;;3.35;;
39680;SDS011;26327;42.550;23.120;2024-01-30T09:22:24;4.50;;;2.13;;
39680;SDS011;26327;42.550;23.120;2024-01-30T09:24:50;5.13;;;2.70;;
39680;SDS011;26327;42.550;23.120;2024-01-30T09:27:15;5.25;;;2.78;;
39680;SDS011;26327;42.550;23.120;2024-01-30T09:29:40;5.68;;;2.75;;
39680;SDS011;26327;42.550;23.120;2024-01-30T09:35:27;7.55;;;3.30;;
39680;SDS011;26327;42.550;23.120;2024-01-30T09:37:53;8.00;;;3.10;;
39680;SDS011;26327;42.550;23.120;2024-01-30T09:40:18;7.45;;;5.32;;
39680;SDS011;26327;42.550;23.120;2024-01-30T09:42:46;10.60;;;5.53;;
39680;SDS011;26327;42.550;23.120;2024-01-30T09:45:14;7.60;;;3.63;;
39680;SDS011;26327;42.550;23.120;2024-01-30T09:47:40;5.03;;;3.20;;
39680;SDS011;26327;42.550;23.120;2024-01-30T09:50:08;7.22;;;4.18;;
39680;SDS011;26327;42.550;23.120;2024-01-30T09:52:34;8.48;;;4.22;;
39680;SDS011;26327;42.550;23.120;2024-01-30T09:55:00;8.80;;;5.18;;
39680;SDS011;26327;42.550;23.120;2024-01-30T09:57:26;7.93;;;5.07;;
39680;SDS011;26327;42.550;23.120;2024-01-30T09:59:52;9.77;;;5.85;;
39680;SDS011;26327;42.550;23.120;2024-01-30T10:02:19;11.48;;;5.82;;
39680;SDS011;26327;42.550;23.120;2024-01-30T10:04:48;12.40;;;7.47;;
39680;SDS011;26327;42.550;23.120;2024-01-30T10:07:14;7.78;;;4.60;;
39680;SDS011;26327;42.550;23.120;2024-01-30T10:09:40;11.13;;;6.97;;
39680;SDS011;26327;42.550;23.120;2024-01-30T10:12:05;10.77;;;7.03;;
39680;SDS011;26327;42.550;23.120;2024-01-30T10:14:31;11.23;;;7.05;;
39680;SDS011;26327;42.550;23.120;2024-01-30T10:17:00;7.63;;;5.05;;
39680;SDS011;26327;42.550;23.120;2024-01-30T10:19:26;6.03;;;4.07;;
39680;SDS011;26327;42.550;23.120;2024-01-30T10:21:51;7.88;;;4.22;;
39680;SDS011;26327;42.550;23.120;2024-01-30T10:24:18;9.45;;;5.05;;
39680;SDS011;26327;42.550;23.120;2024-01-30T10:26:43;27.73;;;18.17;;
39680;SDS011;26327;42.550;23.120;2024-01-30T10:29:09;15.45;;;10.90;;
39680;SDS011;26327;42.550;23.120;2024-01-30T10:31:34;17.60;;;8.75;;
39680;SDS011;26327;42.550;23.120;2024-01-30T10:34:00;6.82;;;4.80;;
39680;SDS011;26327;42.550;23.120;2024-01-30T10:36:27;13.07;;;7.32;;
39680;SDS011;26327;42.550;23.120;2024-01-30T10:38:55;7.43;;;4.85;;
39680;SDS011;26327;42.550;23.120;2024-01-30T10:44:11;9.55;;;3.97;;
39680;SDS011;26327;42.550;23.120;2024-01-30T10:46:40;9.43;;;4.32;;
39680;SDS011;26327;42.550;23.120;2024-01-30T10:49:10;12.25;;;6.88;;
39680;SDS011;26327;42.550;23.120;2024-01-30T10:51:36;8.02;;;5.22;;
39680;SDS011;26327;42.550;23.120;2024-01-30T10:54:03;6.60;;;4.30;;
39680;SDS011;26327;42.550;23.120;2024-01-30T10:56:30;7.65;;;4.05;;
39680;SDS011;26327;42.550;23.120;2024-01-30T10:58:58;8.48;;;5.55;;
39680;SDS011;26327;42.550;23.120;2024-01-30T11:01:23;9.90;;;5.53;;
39680;SDS011;26327;42.550;23.120;2024-01-30T11:03:50;8.77;;;5.85;;
39680;SDS011;26327;42.550;23.120;2024-01-30T11:09:53;25.88;;;14.05;;
39680;SDS011;26327;42.550;23.120;2024-01-30T11:12:28;19.58;;;11.82;;
39680;SDS011;26327;42.550;23.120;2024-01-30T11:15:11;19.70;;;13.57;;
39680;SDS011;26327;42.550;23.120;2024-01-30T11:20:20;7.03;;;4.40;;
39680;SDS011;26327;42.550;23.120;2024-01-30T11:22:48;9.30;;;6.32;;
39680;SDS011;26327;42.550;23.120;2024-01-30T11:25:16;7.78;;;4.63;;
39680;SDS011;26327;42.550;23.120;2024-01-30T11:31:05;9.13;;;4.00;;
39680;SDS011;26327;42.550;23.120;2024-01-30T11:36:59;9.50;;;4.78;;
39680;SDS011;26327;42.550;23.120;2024-01-30T11:39:31;6.80;;;3.60;;
39680;SDS011;26327;42.550;23.120;2024-01-30T11:41:57;8.82;;;4.55;;
39680;SDS011;26327;42.550;23.120;2024-01-30T11:44:23;8.32;;;4.68;;
39680;SDS011;26327;42.550;23.120;2024-01-30T11:46:49;9.15;;;5.88;;
39680;SDS011;26327;42.550;23.120;2024-01-30T11:49:16;7.97;;;4.50;;
39680;SDS011;26327;42.550;23.120;2024-01-30T11:51:47;8.20;;;5.18;;
39680;SDS011;26327;42.550;23.120;2024-01-30T11:54:17;20.48;;;14.38;;
39680;SDS011;26327;42.550;23.120;2024-01-30T11:56:42;20.50;;;12.52;;
39680;SDS011;26327;42.550;23.120;2024-01-30T11:59:08;6.32;;;4.32;;
39680;SDS011;26327;42.550;23.120;2024-01-30T12:01:33;6.35;;;3.90;;
39680;SDS011;26327;42.550;23.120;2024-01-30T12:03:59;7.45;;;4.60;;
39680;SDS011;26327;42.550;23.120;2024-01-30T12:06:25;8.38;;;5.68;;
39680;SDS011;26327;42.550;23.120;2024-01-30T12:09:00;6.00;;;3.97;;
39680;SDS011;26327;42.550;23.120;2024-01-30T12:11:29;7.53;;;4.55;;
39680;SDS011;26327;42.550;23.120;2024-01-30T12:13:55;5.45;;;3.70;;
39680;SDS011;26327;42.550;23.120;2024-01-30T12:16:21;7.00;;;3.72;;
39680;SDS011;26327;42.550;23.120;2024-01-30T12:18:47;5.43;;;3.65;;
39680;SDS011;26327;42.550;23.120;2024-01-30T12:21:12;4.88;;;3.63;;
39680;SDS011;26327;42.550;23.120;2024-01-30T12:23:41;7.18;;;4.18;;
39680;SDS011;26327;42.550;23.120;2024-01-30T12:26:06;5.38;;;3.60;;
39680;SDS011;26327;42.550;23.120;2024-01-30T12:28:32;8.38;;;4.40;;
39680;SDS011;26327;42.550;23.120;2024-01-30T12:31:01;7.15;;;4.30;;
39680;SDS011;26327;42.550;23.120;2024-01-30T12:33:30;5.72;;;4.00;;
39680;SDS011;26327;42.550;23.120;2024-01-30T12:35:56;5.38;;;3.67;;
39680;SDS011;26327;42.550;23.120;2024-01-30T12:38:23;7.38;;;5.38;;
39680;SDS011;26327;42.550;23.120;2024-01-30T12:40:49;6.30;;;4.57;;
39680;SDS011;26327;42.550;23.120;2024-01-30T12:43:19;7.78;;;3.90;;
39680;SDS011;26327;42.550;23.120;2024-01-30T12:45:44;7.35;;;4.10;;
39680;SDS011;26327;42.550;23.120;2024-01-30T12:48:10;13.95;;;5.72;;
39680;SDS011;26327;42.550;23.120;2024-01-30T12:50:35;10.48;;;5.40;;
39680;SDS011;26327;42.550;23.120;2024-01-30T12:53:01;9.15;;;5.15;;
39680;SDS011;26327;42.550;23.120;2024-01-30T12:55:26;13.48;;;6.75;;
39680;SDS011;26327;42.550;23.120;2024-01-30T12:57:53;8.02;;;5.03;;
39680;SDS011;26327;42.550;23.120;2024-01-30T13:00:19;10.98;;;6.10;;
39680;SDS011;26327;42.550;23.120;2024-01-30T13:02:45;8.50;;;5.40;;
39680;SDS011;26327;42.550;23.120;2024-01-30T13:05:10;6.95;;;3.90;;
39680;SDS011;26327;42.550;23.120;2024-01-30T13:07:36;12.73;;;3.53;;
39680;SDS011;26327;42.550;23.120;2024-01-30T13:10:01;5.22;;;3.20;;
39680;SDS011;26327;42.550;23.120;2024-01-30T13:12:28;9.40;;;5.85;;
39680;SDS011;26327;42.550;23.120;2024-01-30T13:14:55;6.13;;;3.92;;
39680;SDS011;26327;42.550;23.120;2024-01-30T13:17:20;6.88;;;4.40;;
39680;SDS011;26327;42.550;23.120;2024-01-30T13:19:46;8.05;;;3.38;;
39680;SDS011;26327;42.550;23.120;2024-01-30T13:22:11;7.25;;;4.13;;
39680;SDS011;26327;42.550;23.120;2024-01-30T13:24:37;7.75;;;3.40;;
39680;SDS011;26327;42.550;23.120;2024-01-30T13:27:02;10.52;;;5.28;;
39680;SDS011;26327;42.550;23.120;2024-01-30T13:29:30;8.13;;;4.03;;
39680;SDS011;26327;42.550;23.120;2024-01-30T13:31:56;5.82;;;3.75;;
39680;SDS011;26327;42.550;23.120;2024-01-30T13:34:21;7.82;;;3.83;;
39680;SDS011;26327;42.550;23.120;2024-01-30T13:36:47;8.35;;;4.35;;
39680;SDS011;26327;42.550;23.120;2024-01-30T13:39:13;10.85;;;4.43;;
39680;SDS011;26327;42.550;23.120;2024-01-30T13:41:41;7.05;;;3.92;;
39680;SDS011;26327;42.550;23.120;2024-01-30T13:44:07;6.13;;;4.20;;
39680;SDS011;26327;42.550;23.120;2024-01-30T13:46:33;8.73;;;4.18;;
39680;SDS011;26327;42.550;23.120;2024-01-30T13:48:59;8.45;;;4.72;;
39680;SDS011;26327;42.550;23.120;2024-01-30T13:51:25;11.80;;;6.00;;
39680;SDS011;26327;42.550;23.120;2024-01-30T13:53:51;7.85;;;3.95;;
39680;SDS011;26327;42.550;23.120;2024-01-30T13:56:16;9.48;;;4.13;;
39680;SDS011;26327;42.550;23.120;2024-01-30T13:58:41;17.85;;;4.72;;
39680;SDS011;26327;42.550;23.120;2024-01-30T14:01:07;7.95;;;4.53;;
39680;SDS011;26327;42.550;23.120;2024-01-30T14:03:32;7.82;;;4.28;;
39680;SDS011;26327;42.550;23.120;2024-01-30T14:05:58;8.73;;;4.25;;
39680;SDS011;26327;42.550;23.120;2024-01-30T14:08:24;7.38;;;4.10;;
39680;SDS011;26327;42.550;23.120;2024-01-30T14:10:52;11.18;;;5.97;;
39680;SDS011;26327;42.550;23.120;2024-01-30T14:13:17;14.70;;;8.25;;
39680;SDS011;26327;42.550;23.120;2024-01-30T14:15:42;11.52;;;5.28;;
39680;SDS011;26327;42.550;23.120;2024-01-30T14:18:08;7.15;;;4.60;;
39680;SDS011;26327;42.550;23.120;2024-01-30T14:20:34;8.35;;;4.57;;
39680;SDS011;26327;42.550;23.120;2024-01-30T14:22:59;8.05;;;4.25;;
39680;SDS011;26327;42.550;23.120;2024-01-30T14:25:25;6.25;;;3.97;;
39680;SDS011;26327;42.550;23.120;2024-01-30T14:27:51;8.70;;;4.93;;
39680;SDS011;26327;42.550;23.120;2024-01-30T14:30:17;8.82;;;5.35;;
39680;SDS011;26327;42.550;23.120;2024-01-30T14:32:42;9.32;;;4.60;;
39680;SDS011;26327;42.550;23.120;2024-01-30T14:35:09;9.27;;;5.30;;
39680;SDS011;26327;42.550;23.120;2024-01-30T14:37:35;9.52;;;5.15;;
39680;SDS011;26327;42.550;23.120;2024-01-30T14:40:02;11.55;;;5.95;;